createdAt,value
2023-03-18T00:01:04.418Z,99.90
2023-03-18T00:03:33.915Z,99.90
2023-03-18T00:06:13.992Z,99.90
2023-03-18T00:08:42.900Z,99.90
2023-03-18T00:11:13.126Z,99.90
2023-03-18T00:13:42.530Z,99.90
2023-03-18T00:16:12.134Z,99.90
2023-03-18T00:18:40.543Z,99.90
2023-03-18T00:21:10.794Z,99.90
2023-03-18T00:23:38.913Z,99.90
2023-03-18T00:26:06.984Z,99.90
2023-03-18T00:28:39.484Z,99.90
2023-03-18T00:31:10.907Z,99.90
2023-03-18T00:33:40.794Z,99.90
2023-03-18T00:36:13.809Z,99.90
2023-03-18T00:38:47.176Z,99.90
2023-03-18T00:41:16.226Z,99.90
2023-03-18T00:43:52.880Z,99.90
2023-03-18T00:46:25.583Z,99.90
2023-03-18T00:48:56.474Z,99.90
2023-03-18T00:51:26.958Z,99.90
2023-03-18T00:53:57.310Z,99.90
2023-03-18T00:56:27.784Z,99.90
2023-03-18T00:58:55.432Z,99.90
2023-03-18T01:01:24.412Z,99.90
2023-03-18T01:03:52.733Z,99.90
2023-03-18T01:06:25.101Z,99.90
2023-03-18T01:08:53.909Z,99.90
2023-03-18T01:11:22.129Z,99.90
2023-03-18T01:13:50.062Z,99.90
2023-03-18T01:16:17.947Z,99.90
2023-03-18T01:18:45.779Z,99.90
2023-03-18T01:21:16.980Z,99.90
2023-03-18T01:23:49.804Z,99.90
2023-03-18T01:26:19.753Z,99.90
2023-03-18T01:28:48.127Z,99.90
2023-03-18T01:31:15.651Z,99.90
2023-03-18T01:33:47.273Z,99.90
2023-03-18T01:36:15.677Z,99.90
2023-03-18T01:38:43.027Z,99.90
2023-03-18T01:41:11.426Z,99.90
2023-03-18T01:43:42.860Z,99.90
2023-03-18T01:46:41.396Z,99.90
2023-03-18T01:49:19.535Z,99.90
2023-03-18T01:51:58.645Z,99.90
2023-03-18T01:54:28.752Z,99.90
2023-03-18T01:56:57.814Z,99.90
2023-03-18T01:59:31.799Z,99.90
2023-03-18T02:02:09.232Z,99.90
2023-03-18T02:05:06.735Z,99.90
2023-03-18T02:07:36.331Z,99.90
2023-03-18T02:10:14.884Z,99.90
2023-03-18T02:12:51.807Z,99.90
2023-03-18T02:15:23.681Z,99.90
2023-03-18T02:18:09.385Z,99.90
2023-03-18T02:20:59.031Z,99.90
2023-03-18T02:24:01.371Z,99.90
2023-03-18T02:27:18.516Z,99.90
2023-03-18T02:29:48.473Z,99.90
2023-03-18T02:32:19.211Z,99.90
2023-03-18T02:34:46.736Z,99.90
2023-03-18T02:37:14.079Z,99.90
2023-03-18T02:39:41.884Z,99.90
2023-03-18T02:42:17.008Z,99.90
2023-03-18T02:44:47.197Z,99.90
2023-03-18T02:47:22.026Z,99.90
2023-03-18T02:49:50.872Z,99.90
2023-03-18T02:52:18.120Z,99.90
2023-03-18T02:54:45.686Z,99.90
2023-03-18T02:57:12.792Z,99.90
2023-03-18T02:59:39.986Z,99.90
2023-03-18T03:02:07.205Z,99.90
2023-03-18T03:04:35.361Z,99.90
2023-03-18T03:07:02.540Z,99.90
2023-03-18T03:09:29.651Z,99.90
2023-03-18T03:11:56.964Z,99.90
2023-03-18T03:14:24.089Z,99.90
2023-03-18T03:16:52.022Z,99.90
2023-03-18T03:19:19.190Z,99.90
2023-03-18T03:21:46.775Z,99.90
2023-03-18T03:24:14.043Z,99.90
2023-03-18T03:26:41.306Z,99.90
2023-03-18T03:29:08.744Z,99.90
2023-03-18T03:31:36.849Z,99.90
2023-03-18T03:34:04.339Z,99.90
2023-03-18T03:36:31.728Z,99.90
2023-03-18T03:38:58.961Z,99.90
2023-03-18T03:41:26.280Z,99.90
2023-03-18T03:43:53.605Z,99.90
2023-03-18T03:46:20.952Z,99.90
2023-03-18T03:48:48.397Z,99.90
2023-03-18T03:51:15.813Z,99.90
2023-03-18T03:53:43.866Z,99.90
2023-03-18T03:56:11.533Z,99.90
2023-03-18T03:58:38.834Z,99.90
2023-03-18T04:01:06.699Z,99.90
2023-03-18T04:03:34.213Z,99.90
2023-03-18T04:06:01.725Z,99.90
2023-03-18T04:08:28.903Z,99.90
2023-03-18T04:10:57.029Z,99.90
2023-03-18T04:13:24.928Z,99.90
2023-03-18T04:15:52.309Z,99.90
2023-03-18T04:18:19.577Z,99.90
2023-03-18T04:20:48.042Z,99.90
2023-03-18T04:23:15.669Z,99.90
2023-03-18T04:25:43.040Z,99.90
2023-03-18T04:28:10.199Z,99.90
2023-03-18T04:30:38.055Z,99.90
2023-03-18T04:33:05.369Z,99.90
2023-03-18T04:35:32.994Z,99.90
2023-03-18T04:38:00.602Z,99.90
2023-03-18T04:40:28.866Z,99.90
2023-03-18T04:42:55.949Z,99.90
2023-03-18T04:45:23.214Z,99.90
2023-03-18T04:47:50.362Z,99.90
2023-03-18T04:50:17.834Z,99.90
2023-03-18T04:52:45.276Z,99.90
2023-03-18T04:55:14.608Z,99.90
2023-03-18T04:57:42.859Z,99.90
2023-03-18T05:00:17.525Z,99.90
2023-03-18T05:02:45.527Z,99.90
2023-03-18T05:05:12.984Z,99.90
2023-03-18T05:07:40.658Z,99.90
2023-03-18T05:10:09.731Z,99.90
2023-03-18T05:12:37.300Z,99.90
2023-03-18T05:15:06.836Z,99.90
2023-03-18T05:17:34.074Z,99.90
2023-03-18T05:20:01.774Z,99.90
2023-03-18T05:22:28.952Z,99.90
2023-03-18T05:24:56.213Z,99.90
2023-03-18T05:27:23.954Z,99.90
2023-03-18T05:29:51.297Z,99.90
2023-03-18T05:32:18.524Z,99.90
2023-03-18T05:34:45.979Z,99.90
2023-03-18T05:37:15.730Z,99.90
2023-03-18T05:39:45.002Z,99.90
2023-03-18T05:42:15.313Z,99.90
2023-03-18T05:44:43.066Z,99.90
2023-03-18T05:47:11.182Z,99.90
2023-03-18T05:49:38.482Z,99.90
2023-03-18T05:52:06.318Z,99.90
2023-03-18T05:54:33.727Z,99.90
2023-03-18T05:57:00.850Z,99.90
2023-03-18T05:59:28.141Z,99.90
2023-03-18T06:01:55.222Z,99.90
2023-03-18T06:04:22.711Z,99.90
2023-03-18T06:06:51.612Z,99.90
2023-03-18T06:09:22.517Z,98.90
2023-03-18T06:11:49.858Z,96.10
2023-03-18T06:14:17.565Z,93.30
2023-03-18T06:16:45.756Z,91.70
2023-03-18T06:19:13.357Z,90.20
2023-03-18T06:21:41.716Z,90.40
2023-03-18T06:24:09.746Z,87.10
2023-03-18T06:26:37.034Z,86.30
2023-03-18T06:29:05.427Z,86.50
2023-03-18T06:31:33.232Z,81.70
2023-03-18T06:34:01.531Z,74.90
2023-03-18T06:36:29.081Z,75.40
2023-03-18T06:39:01.211Z,75.60
2023-03-18T06:41:28.672Z,75.00
2023-03-18T06:43:55.875Z,66.90
2023-03-18T06:46:24.091Z,59.90
2023-03-18T06:48:51.523Z,58.80
2023-03-18T06:51:18.786Z,57.90
2023-03-18T06:53:48.701Z,57.70
2023-03-18T06:56:16.622Z,58.80
2023-03-18T06:58:44.764Z,59.00
2023-03-18T07:01:15.557Z,58.20
2023-03-18T07:03:42.850Z,59.80
2023-03-18T07:06:10.532Z,61.20
2023-03-18T07:08:40.826Z,59.30
2023-03-18T07:11:08.326Z,49.90
2023-03-18T07:13:40.957Z,49.50
2023-03-18T07:16:16.021Z,46.50
2023-03-18T07:18:43.386Z,46.80
2023-03-18T07:21:11.639Z,46.40
2023-03-18T07:23:39.233Z,45.50
2023-03-18T07:26:10.585Z,45.60
2023-03-18T07:28:38.192Z,44.40
2023-03-18T07:31:05.585Z,46.30
2023-03-18T07:33:33.382Z,46.30
2023-03-18T07:36:04.195Z,44.10
2023-03-18T07:38:31.958Z,44.40
2023-03-18T07:41:01.739Z,41.50
2023-03-18T07:43:31.384Z,41.60
2023-03-18T07:46:03.023Z,40.40
2023-03-18T07:48:34.321Z,39.40
2023-03-18T07:51:02.208Z,39.80
2023-03-18T07:53:30.886Z,37.60
2023-03-18T07:55:58.368Z,37.60
2023-03-18T07:58:25.964Z,38.50
2023-03-18T08:00:56.186Z,38.40
2023-03-18T08:03:23.518Z,38.80
2023-03-18T08:05:51.362Z,38.90
2023-03-18T08:08:18.907Z,41.10
2023-03-18T08:10:48.744Z,40.80
2023-03-18T08:13:17.053Z,40.80
2023-03-18T08:15:44.649Z,40.20
2023-03-18T08:18:12.440Z,40.70
2023-03-18T08:20:42.725Z,39.90
2023-03-18T08:23:10.046Z,37.40
2023-03-18T08:25:38.296Z,35.60
2023-03-18T08:28:07.734Z,36.50
2023-03-18T08:30:35.741Z,37.40
2023-03-18T08:33:03.153Z,36.10
2023-03-18T08:35:30.995Z,35.30
2023-03-18T08:37:58.618Z,34.70
2023-03-18T08:40:26.510Z,33.30
2023-03-18T08:42:54.189Z,32.90
2023-03-18T08:45:21.441Z,33.50
2023-03-18T08:47:48.741Z,30.70
2023-03-18T08:50:17.560Z,31.30
2023-03-18T08:52:47.892Z,32.50
2023-03-18T08:55:16.407Z,33.10
2023-03-18T08:57:43.762Z,32.30
2023-03-18T09:00:12.016Z,32.00
2023-03-18T09:02:39.418Z,32.70
2023-03-18T09:05:07.366Z,31.10
2023-03-18T09:07:34.713Z,31.60
2023-03-18T09:10:02.211Z,32.60
2023-03-18T09:12:30.018Z,32.70
2023-03-18T09:14:57.665Z,31.30
2023-03-18T09:17:35.290Z,33.10
2023-03-18T09:20:17.370Z,32.30
2023-03-18T09:22:46.522Z,31.10
2023-03-18T09:25:13.912Z,31.50
2023-03-18T09:27:41.291Z,31.10
2023-03-18T09:30:10.595Z,29.60
2023-03-18T09:32:38.104Z,29.90
2023-03-18T09:35:06.833Z,30.70
2023-03-18T09:37:34.051Z,31.20
2023-03-18T09:40:01.472Z,29.50
2023-03-18T09:43:03.882Z,30.00
2023-03-18T09:46:05.212Z,30.30
2023-03-18T09:49:02.990Z,30.00
2023-03-18T09:51:49.584Z,30.70
2023-03-18T09:54:39.322Z,32.10
2023-03-18T09:57:16.497Z,31.00
2023-03-18T09:59:51.994Z,31.90
2023-03-18T10:02:46.941Z,32.10
2023-03-18T10:05:26.803Z,31.20
2023-03-18T10:08:04.915Z,31.40
2023-03-18T10:10:41.675Z,31.90
2023-03-18T10:13:22.479Z,32.40
2023-03-18T10:15:57.140Z,31.60
2023-03-18T10:18:34.844Z,31.20
2023-03-18T10:21:30.063Z,30.90
2023-03-18T10:24:40.776Z,31.40
2023-03-18T10:27:14.207Z,32.00
2023-03-18T10:30:22.399Z,31.40
2023-03-18T10:33:23.542Z,30.40
2023-03-18T10:36:19.453Z,30.60
2023-03-18T10:38:58.148Z,30.70
2023-03-18T10:41:37.762Z,30.60
2023-03-18T10:44:43.809Z,31.10
2023-03-18T10:47:28.266Z,30.60
2023-03-18T10:50:19.038Z,30.60
2023-03-18T10:53:05.246Z,29.60
2023-03-18T10:55:51.788Z,30.40
2023-03-18T10:58:22.206Z,30.50
2023-03-18T11:00:51.336Z,31.00
2023-03-18T11:03:32.058Z,29.40
2023-03-18T11:06:26.627Z,30.00
2023-03-18T11:09:30.009Z,29.40
2023-03-18T11:12:06.923Z,29.60
2023-03-18T11:14:38.049Z,29.50
2023-03-18T11:17:18.224Z,29.50
2023-03-18T11:20:24.375Z,28.80
2023-03-18T11:22:55.822Z,28.90
2023-03-18T11:25:30.309Z,29.30
2023-03-18T11:28:04.348Z,30.80
2023-03-18T11:30:47.154Z,32.20
2023-03-18T11:33:18.050Z,29.20
2023-03-18T11:36:06.191Z,29.30
2023-03-18T11:38:39.070Z,29.80
2023-03-18T11:41:26.277Z,29.90
2023-03-18T11:44:08.710Z,29.80
2023-03-18T11:46:51.728Z,29.30
2023-03-18T11:49:25.114Z,28.60
2023-03-18T11:52:29.663Z,28.80
2023-03-18T11:55:21.847Z,27.40
2023-03-18T11:58:23.732Z,29.60
2023-03-18T12:01:12.159Z,30.70
2023-03-18T12:04:10.230Z,30.90
2023-03-18T12:07:13.213Z,30.10
2023-03-18T12:10:05.610Z,28.90
2023-03-18T12:12:59.989Z,28.70
2023-03-18T12:15:58.209Z,28.50
2023-03-18T12:19:07.559Z,28.00
2023-03-18T12:21:59.280Z,27.80
2023-03-18T12:24:48.549Z,28.40
2023-03-18T12:28:00.540Z,28.60
2023-03-18T12:31:00.764Z,28.60
2023-03-18T12:33:58.689Z,27.70
2023-03-18T12:37:15.598Z,27.80
2023-03-18T12:40:24.810Z,27.90
2023-03-18T12:43:13.757Z,29.10
2023-03-18T12:45:49.676Z,29.20
2023-03-18T12:48:42.414Z,23.90
2023-03-18T12:51:20.605Z,22.80
2023-03-18T12:53:58.612Z,23.00
2023-03-18T12:56:40.216Z,22.50
2023-03-18T12:59:18.632Z,22.40
2023-03-18T13:02:21.108Z,23.10
2023-03-18T13:04:59.932Z,21.70
2023-03-18T13:07:44.359Z,21.90
2023-03-18T13:10:24.580Z,22.80
2023-03-18T13:12:57.970Z,23.30
2023-03-18T13:15:45.583Z,22.10
2023-03-18T13:18:22.600Z,22.80
2023-03-18T13:20:53.829Z,23.10
2023-03-18T13:23:53.750Z,21.30
2023-03-18T13:26:40.457Z,23.60
2023-03-18T13:29:45.040Z,20.70
2023-03-18T13:32:34.446Z,21.10
2023-03-18T13:35:20.799Z,20.80
2023-03-18T13:38:08.879Z,21.80
2023-03-18T13:41:14.161Z,21.50
2023-03-18T13:43:49.455Z,20.70
2023-03-18T13:46:27.418Z,20.90
2023-03-18T13:49:04.936Z,21.10
2023-03-18T13:51:34.937Z,21.10
2023-03-18T13:54:09.068Z,21.90
2023-03-18T13:56:47.547Z,21.80
2023-03-18T13:59:37.907Z,24.00
2023-03-18T14:02:34.583Z,23.30
2023-03-18T14:05:02.577Z,22.60
2023-03-18T14:07:29.966Z,22.90
2023-03-18T14:10:18.333Z,21.70
2023-03-18T14:12:48.618Z,23.00
2023-03-18T14:15:15.965Z,21.90
2023-03-18T14:17:55.680Z,21.70
2023-03-18T14:20:40.297Z,22.00
2023-03-18T14:23:34.460Z,23.00
2023-03-18T14:26:16.970Z,22.30
2023-03-18T14:28:55.336Z,22.70
2023-03-18T14:31:39.518Z,22.70
2023-03-18T14:34:19.099Z,23.00
2023-03-18T14:36:55.826Z,24.00
2023-03-18T14:39:48.246Z,23.30
2023-03-18T14:43:00.225Z,23.80
2023-03-18T14:45:27.742Z,24.60
2023-03-18T14:47:58.451Z,25.40
2023-03-18T14:50:44.610Z,25.30
2023-03-18T14:53:29.700Z,24.70
2023-03-18T14:56:01.052Z,25.30
2023-03-18T14:58:28.994Z,25.80
2023-03-18T15:01:16.639Z,26.40
2023-03-18T15:03:50.005Z,27.10
2023-03-18T15:06:29.447Z,27.30
2023-03-18T15:09:09.816Z,27.80
2023-03-18T15:11:46.072Z,26.80
2023-03-18T15:14:24.129Z,26.40
2023-03-18T15:16:56.709Z,26.60
2023-03-18T15:19:25.850Z,26.90
2023-03-18T15:21:54.278Z,26.80
2023-03-18T15:24:26.122Z,27.50
2023-03-18T15:27:14.904Z,28.00
2023-03-18T15:29:53.453Z,27.30
2023-03-18T15:32:33.248Z,28.10
2023-03-18T15:35:28.902Z,26.90
2023-03-18T15:38:17.483Z,27.10
2023-03-18T15:40:51.051Z,26.60
2023-03-18T15:43:30.608Z,27.20
2023-03-18T15:46:08.118Z,27.60
2023-03-18T15:48:54.800Z,27.90
2023-03-18T15:51:40.669Z,27.60
2023-03-18T15:54:30.987Z,27.50
2023-03-18T15:57:10.369Z,28.30
2023-03-18T15:59:38.722Z,28.80
2023-03-18T16:02:17.500Z,29.90
2023-03-18T16:04:46.115Z,29.30
2023-03-18T16:07:23.237Z,30.00
2023-03-18T16:09:51.481Z,30.80
2023-03-18T16:12:22.769Z,31.60
2023-03-18T16:14:52.548Z,32.30
2023-03-18T16:17:22.307Z,30.90
2023-03-18T16:19:54.502Z,30.50
2023-03-18T16:22:22.317Z,30.90
2023-03-18T16:24:51.655Z,30.90
2023-03-18T16:27:35.556Z,30.20
2023-03-18T16:30:03.104Z,31.30
2023-03-18T16:32:31.365Z,30.70
2023-03-18T16:34:59.479Z,30.60
2023-03-18T16:37:27.927Z,30.70
2023-03-18T16:39:56.123Z,31.70
2023-03-18T16:42:27.513Z,32.30
2023-03-18T16:44:55.015Z,30.80
2023-03-18T16:47:29.060Z,29.70
2023-03-18T16:50:00.901Z,29.60
2023-03-18T16:52:40.739Z,30.10
2023-03-18T16:55:13.951Z,30.40
2023-03-18T16:57:58.065Z,30.50
2023-03-18T17:00:32.387Z,31.10
2023-03-18T17:03:01.446Z,30.90
2023-03-18T17:05:29.270Z,31.00
2023-03-18T17:07:59.057Z,31.20
2023-03-18T17:10:27.781Z,31.30
2023-03-18T17:13:05.970Z,32.00
2023-03-18T17:15:37.342Z,31.10
2023-03-18T17:18:07.798Z,31.20
2023-03-18T17:20:35.010Z,31.20
2023-03-18T17:23:04.365Z,32.20
2023-03-18T17:25:32.601Z,31.30
2023-03-18T17:28:06.273Z,31.30
2023-03-18T17:30:40.971Z,31.40
2023-03-18T17:33:26.083Z,31.50
2023-03-18T17:35:55.067Z,32.80
2023-03-18T17:38:22.629Z,34.10
2023-03-18T17:40:50.850Z,35.60
2023-03-18T17:43:26.127Z,36.40
2023-03-18T17:45:56.900Z,36.20
2023-03-18T17:48:36.758Z,36.50
2023-03-18T17:51:19.145Z,36.80
2023-03-18T17:54:10.828Z,37.30
2023-03-18T17:56:38.122Z,37.70
2023-03-18T17:59:15.181Z,38.70
2023-03-18T18:01:45.417Z,40.30
2023-03-18T18:04:22.828Z,42.30
2023-03-18T18:06:50.214Z,42.50
2023-03-18T18:09:19.418Z,42.90
2023-03-18T18:11:49.096Z,41.40
2023-03-18T18:14:31.595Z,41.40
2023-03-18T18:16:59.684Z,41.60
2023-03-18T18:19:27.131Z,41.80
2023-03-18T18:21:54.973Z,42.30
2023-03-18T18:24:31.083Z,43.00
2023-03-18T18:26:58.512Z,46.90
2023-03-18T18:29:29.592Z,47.20
2023-03-18T18:31:57.514Z,47.10
2023-03-18T18:34:24.839Z,47.00
2023-03-18T18:36:52.335Z,46.00
2023-03-18T18:39:21.181Z,46.10
2023-03-18T18:41:49.112Z,47.10
2023-03-18T18:44:16.582Z,46.60
2023-03-18T18:46:43.772Z,46.90
2023-03-18T18:49:24.797Z,47.60
2023-03-18T18:52:05.057Z,50.70
2023-03-18T18:54:32.326Z,49.70
2023-03-18T18:59:49.168Z,49.60
2023-03-18T19:02:36.313Z,48.20
2023-03-18T19:05:04.882Z,50.70
2023-03-18T19:07:33.782Z,51.10
2023-03-18T19:10:01.746Z,50.70
2023-03-18T19:12:29.091Z,50.90
2023-03-18T19:14:56.495Z,52.40
2023-03-18T19:17:24.430Z,54.00
2023-03-18T19:19:53.215Z,54.00
2023-03-18T19:22:25.876Z,53.90
2023-03-18T19:24:59.424Z,54.80
2023-03-18T19:27:33.186Z,56.70
2023-03-18T19:30:05.703Z,58.10
2023-03-18T19:32:33.002Z,58.90
2023-03-18T19:35:00.653Z,57.20
2023-03-18T19:37:32.754Z,61.20
2023-03-18T19:40:21.046Z,62.90
2023-03-18T19:42:48.305Z,64.10
2023-03-18T19:45:15.748Z,66.60
2023-03-18T19:47:43.485Z,68.80
2023-03-18T19:50:20.484Z,68.80
2023-03-18T19:52:47.933Z,68.30
2023-03-18T19:55:17.474Z,72.20
2023-03-18T19:57:48.805Z,73.60
2023-03-18T20:00:25.777Z,76.80
2023-03-18T20:02:54.363Z,81.10
2023-03-18T20:05:24.275Z,83.70
2023-03-18T20:07:52.357Z,89.00
2023-03-18T20:10:24.134Z,86.50
2023-03-18T20:12:54.867Z,85.40
2023-03-18T20:15:35.530Z,84.10
2023-03-18T20:18:02.983Z,86.90
2023-03-18T20:20:58.183Z,86.00
2023-03-18T20:23:28.557Z,86.70
2023-03-18T20:26:06.262Z,88.80
2023-03-18T20:28:33.388Z,90.80
2023-03-18T20:31:01.244Z,91.90
2023-03-18T20:33:28.742Z,92.10
2023-03-18T20:35:56.254Z,92.40
2023-03-18T20:38:43.155Z,95.40
2023-03-18T20:41:18.487Z,97.30
2023-03-18T20:43:51.346Z,97.70
2023-03-18T20:46:18.696Z,96.90
2023-03-18T20:48:49.548Z,96.90
2023-03-18T20:51:44.540Z,96.90
2023-03-18T20:54:17.880Z,97.80
2023-03-18T20:56:48.890Z,98.00
2023-03-18T20:59:16.199Z,99.00
2023-03-18T21:01:43.952Z,99.20
2023-03-18T21:04:16.723Z,99.60
2023-03-18T21:06:44.323Z,99.90
2023-03-18T21:09:13.342Z,99.70
2023-03-18T21:11:42.890Z,99.90
2023-03-18T21:14:16.020Z,99.90
2023-03-18T21:16:43.216Z,99.90
2023-03-18T21:19:11.316Z,99.90
2023-03-18T21:21:39.708Z,99.90
2023-03-18T21:24:28.581Z,99.90
2023-03-18T21:27:04.649Z,99.90
2023-03-18T21:29:35.896Z,99.90
2023-03-18T21:32:03.226Z,99.90
2023-03-18T21:34:30.607Z,99.90
2023-03-18T21:36:58.080Z,99.90
2023-03-18T21:39:36.037Z,99.90
2023-03-18T21:42:32.067Z,99.90
2023-03-18T21:44:59.364Z,99.90
2023-03-18T21:47:38.654Z,99.90
2023-03-18T21:52:59.608Z,99.90
2023-03-18T21:55:29.520Z,99.90
2023-03-18T21:57:57.120Z,99.90
2023-03-18T22:00:24.447Z,99.90
2023-03-18T22:02:52.016Z,99.90
2023-03-18T22:05:23.096Z,99.90
2023-03-18T22:07:51.933Z,99.90
2023-03-18T22:10:30.730Z,99.90
2023-03-18T22:12:58.408Z,99.90
2023-03-18T22:15:25.767Z,99.90
2023-03-18T22:17:53.196Z,99.90
2023-03-18T22:20:20.740Z,99.90
2023-03-18T22:22:48.017Z,99.90
2023-03-18T22:25:32.215Z,99.90
2023-03-18T22:28:00.617Z,99.90
2023-03-18T22:30:33.237Z,99.90
2023-03-18T22:33:03.969Z,99.90
2023-03-18T22:35:34.404Z,99.90
2023-03-18T22:38:01.964Z,99.90
2023-03-18T22:40:31.956Z,99.90
2023-03-18T22:43:01.694Z,99.90
2023-03-18T22:45:34.243Z,99.90
2023-03-18T22:48:23.007Z,99.90
2023-03-18T22:50:58.611Z,99.90
2023-03-18T22:53:39.788Z,99.90
2023-03-18T22:56:17.873Z,99.90
2023-03-18T22:58:45.589Z,99.90
2023-03-18T23:01:31.011Z,99.90
2023-03-18T23:03:59.135Z,99.90
2023-03-18T23:06:35.663Z,99.90
2023-03-18T23:09:05.620Z,99.90
2023-03-18T23:11:34.603Z,99.90
2023-03-18T23:14:04.540Z,99.90
2023-03-18T23:16:40.545Z,99.90
2023-03-18T23:19:11.128Z,99.90
2023-03-18T23:21:38.495Z,99.90
2023-03-18T23:24:08.941Z,99.90
2023-03-18T23:26:36.276Z,99.90
2023-03-18T23:29:03.502Z,99.90
2023-03-18T23:31:43.300Z,99.90
2023-03-18T23:34:13.409Z,99.90
2023-03-18T23:36:41.203Z,99.90
2023-03-18T23:39:25.711Z,99.90
2023-03-18T23:41:55.906Z,99.90
2023-03-18T23:44:23.300Z,99.90
2023-03-18T23:46:52.853Z,99.90
2023-03-18T23:49:28.681Z,99.90
2023-03-18T23:52:07.361Z,99.90
2023-03-18T23:57:19.099Z,99.90
2023-03-18T23:59:50.175Z,99.90
